Time;durP1;ratioP1;P1;durP2;ratioP2;P2;SDS_P1;SDS_P2;PMS_P1;PMS_P2;Temp;Humidity;BMP_temperature;BMP_pressure;BME280_temperature;BME280_humidity;BME280_pressure;Samples;Min_cycle;Max_cycle;Signal;HPM_P1;HPM_P2
2022/02/19 00:02:04;;;;;;;3.93;1.53;;;7.70;99.90;;;8.33;58.66;-20010.41;5104189;28;20215;-56
2022/02/19 00:04:32;;;;;;;7.30;1.70;;;7.70;99.90;;;8.30;59.33;-20009.38;5102772;28;20223;-52
2022/02/19 00:07:00;;;;;;;7.03;1.77;;;7.70;99.90;;;8.25;58.42;-20007.66;5105315;28;20215;-52
2022/02/19 00:09:28;;;;;;;3.73;1.43;;;7.60;99.90;;;8.26;58.61;-20008.19;5108514;27;20294;-57
2022/02/19 00:11:56;;;;;;;6.00;1.60;;;7.60;99.90;;;8.30;58.74;-20009.38;5108108;27;20705;-55
2022/02/19 00:14:25;;;;;;;5.93;2.03;;;7.60;99.90;;;8.20;58.14;-20006.13;5107679;28;20298;-56
2022/02/19 00:16:53;;;;;;;5.07;1.73;;;7.50;99.90;;;8.19;56.32;-20005.59;5105420;28;20220;-55
2022/02/19 00:19:21;;;;;;;3.97;1.70;;;7.50;99.90;;;8.26;57.30;-20008.00;5107154;28;20225;-54
2022/02/19 00:21:49;;;;;;;6.83;1.37;;;7.50;99.90;;;8.20;56.15;-20006.13;5107687;28;20314;-54
2022/02/19 00:24:17;;;;;;;6.17;1.60;;;7.50;99.90;;;8.19;54.93;-20005.59;5108234;28;20319;-56
2022/02/19 00:26:46;;;;;;;4.37;1.30;;;7.50;99.90;;;8.18;54.46;-20005.44;5110287;27;20196;-57
2022/02/19 00:29:14;;;;;;;4.17;1.50;;;7.50;99.90;;;8.24;52.51;-20007.50;5105698;27;20250;-55
2022/02/19 00:31:43;;;;;;;4.60;1.90;;;7.60;99.90;;;8.28;52.83;-20008.88;5107244;28;20717;-53
2022/02/19 00:34:11;;;;;;;4.83;1.73;;;7.60;99.90;;;8.23;53.80;-20006.97;5108111;28;20231;-55
2022/02/19 00:36:39;;;;;;;6.90;1.60;;;7.60;99.90;;;8.17;54.00;-20004.94;5109558;27;20231;-54
2022/02/19 00:39:07;;;;;;;4.00;1.60;;;7.50;99.90;;;8.11;53.61;-20002.88;5104171;28;21090;-55
2022/02/19 00:41:37;;;;;;;4.73;1.50;;;7.40;99.90;;;8.12;53.44;-20003.22;5106022;27;20224;-56
2022/02/19 00:44:06;;;;;;;4.13;1.60;;;7.40;99.90;;;8.04;52.48;-20000.47;5105702;27;20219;-55
2022/02/19 00:46:35;;;;;;;5.87;1.57;;;7.40;99.90;;;8.17;51.66;-20004.94;5103699;28;20215;-54
2022/02/19 00:49:04;;;;;;;3.87;1.40;;;7.50;99.90;;;8.12;51.26;-20003.22;5106675;28;20223;-56
2022/02/19 00:51:33;;;;;;;6.57;1.97;;;7.50;99.90;;;8.07;50.76;-20001.50;5105989;28;20198;-54
2022/02/19 00:54:02;;;;;;;6.43;1.60;;;7.40;99.90;;;8.12;50.56;-20003.38;5104207;28;20213;-53
2022/02/19 00:56:30;;;;;;;3.30;1.60;;;7.40;99.90;;;8.06;50.87;-20001.16;5108210;28;20767;-54
2022/02/19 00:58:58;;;;;;;4.07;1.53;;;7.40;99.90;;;8.08;50.71;-20002.03;5105155;28;20343;-57
2022/02/19 01:01:26;;;;;;;4.13;1.60;;;7.40;99.90;;;8.12;49.92;-20003.38;5105030;28;20219;-54
2022/02/19 01:03:54;;;;;;;7.27;1.60;;;7.40;99.90;;;8.06;50.40;-20001.34;5107924;28;20329;-56
2022/02/19 01:06:24;;;;;;;5.27;1.50;;;7.40;99.90;;;7.98;51.53;-19998.44;5107010;28;20192;-55
2022/02/19 01:08:52;;;;;;;3.57;1.40;;;7.30;99.90;;;8.05;51.17;-20000.84;5108791;28;20621;-55
2022/02/19 01:11:20;;;;;;;5.60;1.30;;;7.30;99.90;;;8.04;50.86;-20000.47;5109612;28;20216;-51
2022/02/19 01:13:50;;;;;;;4.53;1.40;;;7.30;99.90;;;8.05;51.43;-20000.84;5108734;28;20271;-55
2022/02/19 01:16:19;;;;;;;4.47;1.50;;;7.30;99.90;;;8.04;52.45;-20000.66;5103995;28;21217;-58
2022/02/19 01:18:47;;;;;;;4.80;1.43;;;7.30;99.90;;;7.95;51.79;-19997.41;5105886;28;20236;-58
2022/02/19 01:21:17;;;;;;;3.80;1.47;;;7.30;99.90;;;7.94;52.46;-19997.06;5114072;28;20325;-56
2022/02/19 01:23:47;;;;;;;5.93;1.93;;;7.30;99.90;;;7.91;52.32;-19996.03;5111196;28;20302;-57
2022/02/19 01:26:15;;;;;;;4.60;1.60;;;7.20;99.90;;;7.93;52.77;-19996.72;5093146;28;20249;-56
2022/02/19 01:28:43;;;;;;;6.10;1.70;;;7.20;99.90;;;8.00;52.46;-19999.13;5092813;28;20220;-54
2022/02/19 01:31:11;;;;;;;5.03;1.57;;;7.30;99.90;;;7.98;52.67;-19998.59;5092810;28;20724;-58
2022/02/19 01:33:39;;;;;;;4.93;2.17;;;7.30;99.90;;;7.82;53.34;-19992.97;5102586;28;20575;-51
2022/02/19 01:36:07;;;;;;;4.37;1.60;;;7.20;99.90;;;7.95;54.21;-19997.41;5113594;28;20901;-54
2022/02/19 01:38:35;;;;;;;6.33;2.17;;;7.20;99.90;;;7.92;54.17;-19996.38;5112963;28;20223;-54
2022/02/19 01:41:05;;;;;;;6.87;1.83;;;7.20;99.90;;;7.87;54.57;-19994.69;5112984;28;20231;-57
2022/02/19 01:43:33;;;;;;;5.20;1.70;;;7.20;99.90;;;7.79;54.95;-19992.13;5112648;28;20257;-55
2022/02/19 01:46:01;;;;;;;3.80;1.50;;;7.20;99.90;;;7.80;53.47;-19992.28;5112775;28;20246;-53
2022/02/19 01:48:29;;;;;;;2.83;1.60;;;7.20;99.90;;;7.94;54.12;-19997.06;5112817;28;20676;-55
2022/02/19 01:50:57;;;;;;;7.50;1.83;;;7.20;99.90;;;7.87;54.48;-19994.84;5113147;28;20203;-54
2022/02/19 01:53:25;;;;;;;5.73;1.60;;;7.20;99.90;;;7.90;55.41;-19995.88;5112587;28;20738;-55
2022/02/19 01:55:56;;;;;;;6.80;1.43;;;7.20;99.90;;;7.91;55.62;-19996.22;5112315;28;20313;-55
2022/02/19 01:58:26;;;;;;;4.43;1.43;;;7.20;99.90;;;7.84;56.87;-19993.81;5112169;28;20582;-56
2022/02/19 02:00:54;;;;;;;7.07;1.60;;;7.20;99.90;;;7.87;57.49;-19994.69;5111444;28;20223;-54
2022/02/19 02:03:23;;;;;;;5.80;1.53;;;7.20;99.90;;;7.90;58.70;-19995.88;5103316;28;20208;-54
2022/02/19 02:05:51;;;;;;;7.97;2.13;;;7.10;99.90;;;7.79;58.16;-19992.13;5106601;28;20229;-58
2022/02/19 02:08:22;;;;;;;3.70;1.53;;;7.10;99.90;;;7.72;58.44;-19989.72;5104958;28;20686;-55
2022/02/19 02:10:50;;;;;;;5.53;1.50;;;7.10;99.90;;;7.74;59.64;-19990.41;5104657;28;20703;-54
2022/02/19 02:13:18;;;;;;;9.13;2.23;;;7.00;99.90;;;7.66;60.36;-19987.50;5105824;28;20215;-54
2022/02/19 02:15:52;;;;;;;7.60;1.70;;;7.00;99.90;;;7.56;60.87;-19984.09;5102120;28;20428;-55
2022/02/19 02:18:21;;;;;;;7.50;2.20;;;6.90;99.90;;;7.48;61.04;-19981.53;5103072;28;20219;-55
2022/02/19 02:20:49;;;;;;;8.30;1.77;;;6.80;99.90;;;7.43;61.40;-19979.81;5102322;28;20211;-56
2022/02/19 02:23:20;;;;;;;6.57;2.00;;;6.80;99.90;;;7.41;62.85;-19979.31;5101065;27;20246;-56
2022/02/19 02:25:48;;;;;;;5.93;1.83;;;6.70;99.90;;;7.50;61.96;-19982.03;5104426;28;20326;-54
2022/02/19 02:28:16;;;;;;;6.27;1.80;;;6.80;99.90;;;7.49;61.29;-19981.88;5100844;28;20211;-55
2022/02/19 02:30:44;;;;;;;5.50;1.40;;;6.80;99.90;;;7.56;60.40;-19984.25;5103383;28;20345;-53
2022/02/19 02:33:14;;;;;;;5.33;1.50;;;6.80;99.90;;;7.43;61.18;-19979.97;5103081;28;20237;-57
2022/02/19 02:35:42;;;;;;;3.77;1.20;;;6.80;99.90;;;7.54;61.30;-19983.56;5102362;28;20210;-51
2022/02/19 02:38:11;;;;;;;3.77;1.10;;;6.80;99.90;;;7.57;61.14;-19984.44;5101331;28;20286;-56
2022/02/19 02:40:40;;;;;;;6.17;1.40;;;6.80;99.90;;;7.44;61.76;-19980.16;5104767;28;20217;-54
2022/02/19 02:43:08;;;;;;;4.33;1.20;;;6.80;99.90;;;7.28;61.40;-19974.84;5111494;28;20232;-55
2022/02/19 02:45:36;;;;;;;4.63;2.03;;;6.70;99.90;;;7.32;62.12;-19976.22;5109272;28;20593;-55
2022/02/19 02:48:23;;;;;;;6.93;1.50;;;6.70;99.90;;;7.31;61.90;-19975.88;5100646;28;20204;-55
2022/02/19 02:50:52;;;;;;;4.10;1.30;;;6.60;99.90;;;7.27;62.33;-19974.50;5100118;28;20243;-54
2022/02/19 02:53:40;;;;;;;4.00;1.23;;;6.60;99.90;;;7.14;62.42;-19969.91;5104719;28;20215;-52
2022/02/19 02:56:09;;;;;;;2.67;1.10;;;6.50;99.90;;;7.22;61.64;-19972.81;5110747;28;20223;-54
2022/02/19 02:58:38;;;;;;;5.07;1.33;;;6.50;99.90;;;7.24;61.82;-19973.31;5110964;28;20312;-55
2022/02/19 03:01:06;;;;;;;3.77;1.10;;;6.50;99.90;;;7.27;61.81;-19974.50;5110331;28;20229;-56
2022/02/19 03:03:35;;;;;;;3.23;1.27;;;6.50;99.90;;;7.18;61.43;-19971.44;5090476;28;20646;-54
2022/02/19 03:06:04;;;;;;;4.70;1.00;;;6.50;99.90;;;7.19;61.34;-19971.78;5091068;28;20218;-54
2022/02/19 03:08:33;;;;;;;4.00;1.10;;;6.50;99.90;;;7.09;61.84;-19968.19;5090896;28;20244;-56
2022/02/19 03:11:01;;;;;;;4.47;1.20;;;6.50;99.90;;;7.09;61.93;-19968.38;5090554;28;20242;-56
2022/02/19 03:13:31;;;;;;;5.03;1.10;;;6.40;99.90;;;6.98;61.88;-19964.59;5100746;28;20847;-55
2022/02/19 03:15:59;;;;;;;2.90;1.40;;;6.40;99.90;;;7.07;62.35;-19967.50;5097317;28;20923;-55
2022/02/19 03:18:27;;;;;;;3.53;1.30;;;6.40;99.90;;;6.96;61.77;-19963.91;5100724;28;20200;-55
2022/02/19 03:20:55;;;;;;;3.63;1.40;;;6.30;99.90;;;6.88;62.44;-19961.00;5102491;28;20209;-54
2022/02/19 03:23:23;;;;;;;2.97;1.20;;;6.30;99.90;;;6.81;61.93;-19958.63;5103614;28;20225;-55
2022/02/19 03:25:51;;;;;;;3.63;1.37;;;6.20;99.90;;;6.84;61.92;-19959.66;5102676;28;20313;-56
2022/02/19 03:28:19;;;;;;;5.10;1.13;;;6.20;99.90;;;6.77;62.26;-19957.44;5105533;28;20779;-56
2022/02/19 03:30:48;;;;;;;4.03;1.40;;;6.10;99.90;;;6.67;62.19;-19954.00;5108438;28;20233;-55
2022/02/19 03:33:16;;;;;;;4.40;1.37;;;6.10;99.90;;;6.70;62.09;-19954.84;5108868;28;21831;-55
2022/02/19 03:35:44;;;;;;;3.17;1.20;;;6.10;99.90;;;6.72;60.95;-19955.72;5109170;28;21768;-55
2022/02/19 03:38:12;;;;;;;4.30;1.40;;;6.10;99.90;;;6.71;61.99;-19955.38;5105940;28;20267;-54
2022/02/19 03:40:40;;;;;;;2.83;0.90;;;6.10;99.90;;;6.70;60.86;-19955.03;5104766;28;20340;-55
2022/02/19 03:43:08;;;;;;;3.77;1.30;;;6.10;99.90;;;6.66;60.86;-19953.50;5105555;28;20254;-55
2022/02/19 03:45:38;;;;;;;4.47;1.40;;;6.00;99.90;;;6.58;61.28;-19950.75;5106448;28;20340;-55
2022/02/19 03:48:08;;;;;;;3.63;1.20;;;6.00;99.90;;;6.58;61.99;-19950.75;5106512;28;20573;-54
2022/02/19 03:50:36;;;;;;;4.70;1.20;;;5.90;99.90;;;6.54;63.21;-19949.56;5104522;28;20219;-55
2022/02/19 03:53:05;;;;;;;6.03;1.27;;;5.90;99.90;;;6.47;62.95;-19947.19;5104780;27;20231;-54
2022/02/19 03:55:33;;;;;;;2.47;1.20;;;5.90;99.90;;;6.47;62.98;-19947.19;5104187;27;20284;-56
2022/02/19 03:58:02;;;;;;;2.93;1.10;;;5.90;99.90;;;6.51;63.79;-19948.38;5105089;28;20240;-56
2022/02/19 04:00:30;;;;;;;2.27;1.20;;;5.80;99.90;;;6.44;64.27;-19945.97;5104344;28;20237;-56
2022/02/19 04:02:58;;;;;;;4.87;1.00;;;5.80;99.90;;;6.43;64.09;-19945.81;5104543;28;20202;-54
2022/02/19 04:05:27;;;;;;;4.13;1.23;;;5.80;99.90;;;6.50;63.49;-19948.03;5102640;27;20278;-51
2022/02/19 04:07:55;;;;;;;2.63;1.17;;;5.80;99.90;;;6.38;64.25;-19944.09;5110753;28;20233;-56
2022/02/19 04:10:23;;;;;;;2.37;1.00;;;5.80;99.90;;;6.42;63.27;-19945.47;5113685;28;20244;-53
2022/02/19 04:12:51;;;;;;;5.27;1.10;;;5.80;99.90;;;6.39;63.63;-19944.44;5114079;28;20232;-55
2022/02/19 04:15:19;;;;;;;4.10;1.67;;;5.80;99.90;;;6.44;63.15;-19945.97;5134257;27;20220;-50
2022/02/19 04:17:47;;;;;;;3.07;1.20;;;5.80;99.90;;;6.42;63.67;-19945.28;5134801;27;20667;-56
2022/02/19 04:20:16;;;;;;;3.57;1.07;;;5.80;99.90;;;6.47;62.66;-19947.19;5134395;27;20227;-56
2022/02/19 04:22:45;;;;;;;2.10;0.83;;;5.80;99.90;;;6.44;63.05;-19945.97;5134232;27;20781;-54
2022/02/19 04:25:13;;;;;;;3.33;1.30;;;5.80;99.90;;;6.41;63.53;-19944.94;5119083;27;20231;-54
2022/02/19 04:27:41;;;;;;;1.73;1.07;;;5.80;99.90;;;6.46;64.00;-19946.66;5113938;28;20305;-56
2022/02/19 04:30:10;;;;;;;4.23;1.57;;;5.80;99.90;;;6.40;63.95;-19944.78;5114356;28;20203;-55
2022/02/19 04:32:38;;;;;;;1.90;0.93;;;5.80;99.90;;;6.34;63.65;-19942.56;5112715;28;20686;-55
2022/02/19 04:35:08;;;;;;;4.53;1.40;;;5.70;99.90;;;6.31;64.61;-19941.69;5108633;28;20234;-55
2022/02/19 04:37:36;;;;;;;3.60;1.23;;;5.70;99.90;;;6.31;63.94;-19941.69;5108910;28;20256;-56
2022/02/19 04:40:08;;;;;;;4.20;1.17;;;5.60;99.90;;;6.36;63.61;-19943.41;5109788;28;20820;-56
2022/02/19 04:42:36;;;;;;;4.27;1.30;;;5.70;99.90;;;6.30;63.22;-19941.38;5110866;28;20301;-53
2022/02/19 04:45:05;;;;;;;3.63;0.97;;;5.60;99.90;;;6.36;63.29;-19943.25;5109159;28;20284;-56
2022/02/19 04:47:34;;;;;;;4.30;1.00;;;5.70;99.90;;;6.31;62.68;-19941.53;5109721;28;20309;-54
2022/02/19 04:50:04;;;;;;;2.90;1.10;;;5.70;99.90;;;6.39;62.85;-19944.28;5109912;28;20250;-55
2022/02/19 04:52:33;;;;;;;4.63;1.13;;;5.70;99.90;;;6.31;63.70;-19941.53;5106321;28;20239;-56
2022/02/19 04:55:01;;;;;;;2.77;1.03;;;5.60;99.90;;;6.14;63.40;-19935.88;5106523;28;20658;-55
2022/02/19 04:57:30;;;;;;;6.17;1.37;;;5.60;99.90;;;6.30;62.77;-19941.19;5107412;27;20200;-55
2022/02/19 04:59:58;;;;;;;3.70;1.10;;;5.60;99.90;;;6.25;63.09;-19939.66;5105938;27;20301;-55
2022/02/19 05:02:26;;;;;;;4.13;1.27;;;5.60;99.90;;;6.33;63.44;-19942.38;5104178;27;20217;-55
2022/02/19 05:04:54;;;;;;;2.57;1.13;;;5.60;99.90;;;6.31;62.55;-19941.69;5107015;28;20743;-56
2022/02/19 05:07:22;;;;;;;3.03;1.20;;;5.60;99.90;;;6.25;62.83;-19939.47;5104919;28;20256;-54
2022/02/19 05:09:50;;;;;;;4.83;1.73;;;5.60;99.90;;;6.19;62.86;-19937.78;5108371;28;20233;-57
2022/02/19 05:12:18;;;;;;;3.47;1.27;;;5.60;99.90;;;6.21;62.48;-19938.13;5111550;28;20294;-54
2022/02/19 05:14:47;;;;;;;4.23;1.30;;;5.60;99.90;;;6.11;62.51;-19935.03;5113712;28;20205;-54
2022/02/19 05:17:16;;;;;;;4.30;1.47;;;5.50;99.90;;;6.16;63.22;-19936.75;5111660;28;20369;-55
2022/02/19 05:19:44;;;;;;;5.63;1.37;;;5.50;99.90;;;6.16;63.43;-19936.56;5111779;28;20235;-54
2022/02/19 05:22:12;;;;;;;2.93;0.97;;;5.50;99.90;;;6.11;64.13;-19934.88;5104719;28;20221;-55
2022/02/19 05:24:40;;;;;;;3.50;0.97;;;5.50;99.90;;;6.17;63.50;-19937.09;5104718;28;20228;-55
2022/02/19 05:27:08;;;;;;;3.87;1.03;;;5.50;99.90;;;6.11;64.55;-19934.88;5105798;28;20222;-54
2022/02/19 05:29:36;;;;;;;2.20;0.80;;;5.50;99.90;;;6.09;64.15;-19934.19;5104577;28;20304;-55
2022/02/19 05:32:06;;;;;;;3.27;1.23;;;5.40;99.90;;;6.07;64.23;-19933.66;5103350;28;20675;-55
2022/02/19 05:34:34;;;;;;;4.20;1.10;;;5.40;99.90;;;6.10;64.59;-19934.69;5103266;28;20301;-55
2022/02/19 05:37:03;;;;;;;3.00;1.10;;;5.40;99.90;;;6.14;65.96;-19935.88;5103176;28;20380;-52
2022/02/19 05:39:31;;;;;;;5.43;1.10;;;5.40;99.90;;;6.12;65.40;-19935.22;5104950;28;20237;-56
2022/02/19 05:41:58;;;;;;;5.13;1.47;;;5.40;99.90;;;6.10;65.43;-19934.69;5108765;27;20232;-54
2022/02/19 05:44:26;;;;;;;3.67;1.20;;;5.40;99.90;;;6.05;66.16;-19932.81;5109244;28;20657;-55
2022/02/19 05:46:55;;;;;;;4.33;0.97;;;5.40;99.90;;;5.99;66.10;-19930.75;5111926;28;20378;-54
2022/02/19 05:49:24;;;;;;;4.97;1.10;;;5.40;99.90;;;6.02;65.66;-19931.97;5111706;28;20232;-54
2022/02/19 05:51:52;;;;;;;4.03;1.20;;;5.40;99.90;;;6.04;66.04;-19932.47;5110365;28;20308;-54
2022/02/19 05:54:20;;;;;;;4.03;1.37;;;5.40;99.90;;;5.96;66.62;-19929.91;5111773;28;20310;-52
2022/02/19 05:56:48;;;;;;;1.50;1.20;;;5.30;99.90;;;5.98;66.64;-19930.44;5112587;28;20193;-56
2022/02/19 05:59:16;;;;;;;3.13;1.10;;;5.30;99.90;;;6.00;66.04;-19931.28;5111680;28;20254;-54
2022/02/19 06:01:44;;;;;;;3.17;1.53;;;5.30;99.90;;;5.96;66.31;-19929.75;5111824;28;20579;-54
2022/02/19 06:04:12;;;;;;;4.90;1.40;;;5.30;99.90;;;5.97;65.00;-19930.25;5111730;28;20249;-56
2022/02/19 06:06:41;;;;;;;6.57;1.23;;;5.30;99.90;;;6.03;65.83;-19932.13;5111677;28;20774;-56
2022/02/19 06:09:09;;;;;;;2.50;1.40;;;5.30;99.90;;;5.99;65.37;-19930.94;5107624;28;20289;-56
2022/02/19 06:11:40;;;;;;;4.23;1.10;;;5.30;99.90;;;6.02;65.37;-19931.97;5108514;28;20734;-54
2022/02/19 06:14:08;;;;;;;4.87;1.53;;;5.30;99.90;;;5.94;66.00;-19929.06;5102264;27;20310;-53
2022/02/19 06:16:36;;;;;;;3.50;1.50;;;5.30;99.90;;;5.93;66.16;-19928.88;5105983;28;20219;-55
2022/02/19 06:19:04;;;;;;;3.90;1.27;;;5.30;99.90;;;5.84;66.00;-19925.81;5106853;28;20391;-56
2022/02/19 06:21:33;;;;;;;4.20;1.20;;;5.20;99.90;;;5.90;65.32;-19927.69;5104694;28;20286;-53
2022/02/19 06:24:02;;;;;;;2.73;1.37;;;5.30;99.90;;;5.92;64.80;-19928.53;5106880;28;20209;-58
2022/02/19 06:26:30;;;;;;;7.53;1.33;;;5.30;99.90;;;6.06;64.16;-19933.16;5106325;28;20222;-56
2022/02/19 06:28:58;;;;;;;2.87;1.10;;;5.30;99.90;;;6.11;64.29;-19934.88;5106283;27;20236;-55
2022/02/19 06:31:27;;;;;;;3.53;1.23;;;5.40;99.90;;;5.99;65.07;-19930.94;5106315;28;20238;-54
2022/02/19 06:33:55;;;;;;;5.47;1.50;;;5.30;99.90;;;5.92;64.95;-19928.53;5107597;28;20708;-54
2022/02/19 06:36:23;;;;;;;4.60;1.30;;;5.30;99.90;;;6.01;65.52;-19931.44;5105505;28;20228;-54
2022/02/19 06:38:51;;;;;;;3.20;1.30;;;5.30;99.90;;;5.94;64.78;-19929.06;5107685;28;20291;-55
2022/02/19 06:41:20;;;;;;;5.27;1.30;;;5.30;99.90;;;5.99;65.58;-19930.94;5110951;28;20295;-56
2022/02/19 06:43:48;;;;;;;5.17;1.53;;;5.30;99.90;;;5.98;65.14;-19930.59;5105171;28;20255;-55
2022/02/19 06:46:16;;;;;;;4.95;1.55;;;5.30;99.90;;;5.90;65.69;-19927.69;5102629;28;20228;-54
2022/02/19 06:48:45;;;;;;;4.67;1.10;;;5.30;99.90;;;5.97;65.39;-19930.09;5103760;28;20227;-58
2022/02/19 06:51:13;;;;;;;6.27;1.80;;;5.20;99.90;;;6.01;65.16;-19931.63;5104774;27;20205;-53
2022/02/19 06:53:41;;;;;;;3.63;1.30;;;5.30;99.90;;;5.96;64.47;-19929.91;5103845;27;20304;-57
2022/02/19 06:56:09;;;;;;;1.60;0.90;;;5.30;99.90;;;6.07;63.76;-19933.66;5103850;28;20227;-56
2022/02/19 06:58:39;;;;;;;1.83;1.00;;;5.40;99.90;;;6.05;62.85;-19932.81;5110825;28;20316;-58
2022/02/19 07:01:07;;;;;;;3.87;1.30;;;5.40;99.90;;;6.09;63.46;-19934.19;5110643;28;20235;-56
2022/02/19 07:03:35;;;;;;;3.67;1.20;;;5.40;99.90;;;6.20;62.34;-19937.94;5110321;28;20245;-54
2022/02/19 07:06:03;;;;;;;4.47;1.03;;;5.40;99.90;;;6.22;62.10;-19938.63;5111132;28;20202;-55
2022/02/19 07:08:31;;;;;;;3.57;1.20;;;5.50;99.90;;;6.27;61.73;-19940.34;5111048;28;20295;-57
2022/02/19 07:10:59;;;;;;;2.97;1.27;;;5.50;99.90;;;6.36;61.41;-19943.25;5110495;28;20226;-52
2022/02/19 07:13:27;;;;;;;2.43;1.13;;;5.60;99.90;;;6.47;61.93;-19947.19;5110821;28;20240;-58
2022/02/19 07:15:56;;;;;;;3.00;1.20;;;5.60;99.90;;;6.45;61.53;-19946.31;5110351;28;20232;-55
2022/02/19 07:18:24;;;;;;;4.80;1.30;;;5.70;99.90;;;6.56;61.63;-19950.25;5110440;28;20796;-55
2022/02/19 07:20:52;;;;;;;3.80;1.30;;;5.70;99.90;;;6.52;62.28;-19948.72;5110842;28;20762;-54
2022/02/19 07:23:21;;;;;;;2.33;1.40;;;5.70;99.90;;;6.59;61.85;-19951.09;5110388;28;20253;-53
2022/02/19 07:25:49;;;;;;;4.30;1.10;;;5.80;99.90;;;6.57;61.89;-19950.41;5109859;28;20275;-57
2022/02/19 07:28:17;;;;;;;4.80;1.47;;;5.80;99.90;;;6.58;62.37;-19950.94;5110591;28;20227;-52
2022/02/19 07:30:45;;;;;;;3.03;1.40;;;5.70;99.90;;;6.69;61.99;-19954.53;5110264;28;20222;-54
2022/02/19 07:33:15;;;;;;;2.67;1.10;;;5.80;99.90;;;6.66;62.01;-19953.66;5110222;28;20682;-57
2022/02/19 07:35:43;;;;;;;3.87;1.23;;;5.90;99.90;;;6.72;61.40;-19955.72;5108696;28;20212;-55
2022/02/19 07:38:10;;;;;;;3.17;1.20;;;5.90;99.90;;;6.74;61.24;-19956.41;5102172;28;20226;-56
2022/02/19 07:40:38;;;;;;;4.30;1.30;;;5.90;99.90;;;6.81;61.75;-19958.63;5101801;28;20300;-55
2022/02/19 07:43:08;;;;;;;3.57;1.30;;;6.00;99.90;;;6.82;61.96;-19958.97;5104157;28;20637;-53
2022/02/19 07:45:36;;;;;;;3.93;1.50;;;6.00;99.90;;;6.93;62.15;-19962.91;5102733;28;20234;-54
2022/02/19 07:48:05;;;;;;;1.60;0.90;;;6.10;99.90;;;6.95;62.15;-19963.41;5110763;28;20227;-57
2022/02/19 07:58:51;;;;;;;3.63;1.10;;;6.10;99.90;;;6.82;62.96;-19958.97;5109775;28;20634;-53
2022/02/19 08:01:19;;;;;;;1.60;1.30;;;6.10;99.90;;;6.82;63.06;-19959.13;5106486;28;20211;-54
2022/02/19 08:03:47;;;;;;;4.07;1.33;;;6.10;99.90;;;6.99;63.65;-19964.94;5106859;28;20225;-53
2022/02/19 08:06:17;;;;;;;4.40;1.33;;;6.10;99.90;;;7.07;62.62;-19967.69;5100797;28;20209;-56
2022/02/19 08:08:45;;;;;;;3.40;1.57;;;6.20;99.90;;;7.12;62.81;-19969.38;5106922;28;20226;-52
2022/02/19 08:11:13;;;;;;;3.50;1.50;;;6.30;99.90;;;7.20;61.79;-19972.13;5107816;28;20231;-56
2022/02/19 08:13:42;;;;;;;3.00;1.40;;;6.30;99.90;;;7.13;62.84;-19969.72;5103697;28;20313;-56
2022/02/19 08:16:10;;;;;;;6.10;1.50;;;6.30;99.90;;;7.27;62.11;-19974.34;5104612;28;20233;-55
2022/02/19 08:18:39;;;;;;;5.63;1.50;;;6.40;99.90;;;7.29;62.08;-19975.19;5106642;28;20229;-55
2022/02/19 08:21:07;;;;;;;2.37;1.10;;;6.40;99.90;;;7.40;61.51;-19978.97;5107669;28;20234;-55
2022/02/19 08:23:36;;;;;;;2.53;1.20;;;6.50;99.90;;;7.42;61.95;-19979.47;5107261;28;20650;-53
2022/02/19 08:26:04;;;;;;;4.83;1.30;;;6.50;99.90;;;7.61;61.38;-19985.97;5107031;27;20222;-56
2022/02/19 08:28:32;;;;;;;1.97;1.37;;;6.60;99.90;;;7.79;61.48;-19992.13;5107935;28;20227;-58
2022/02/19 08:31:00;;;;;;;1.90;1.07;;;6.70;99.90;;;7.73;61.71;-19989.91;5102527;28;20227;-55
2022/02/19 08:33:28;;;;;;;3.03;1.30;;;6.70;99.90;;;7.77;61.56;-19991.44;5105881;28;20299;-53
2022/02/19 08:35:58;;;;;;;3.87;1.43;;;6.80;99.90;;;7.81;61.96;-19992.63;5108952;28;20803;-55
2022/02/19 08:38:26;;;;;;;3.50;1.63;;;6.80;99.90;;;7.96;61.06;-19997.94;5107657;28;20242;-54
2022/02/19 08:40:55;;;;;;;3.97;1.60;;;7.00;99.90;;;7.87;60.92;-19994.69;5109912;28;20313;-54
2022/02/19 08:43:23;;;;;;;8.00;2.00;;;6.90;99.90;;;7.91;61.25;-19996.22;5110141;28;20693;-56
2022/02/19 08:45:52;;;;;;;3.57;1.40;;;7.00;99.90;;;7.96;60.96;-19997.75;5111202;28;20219;-55
2022/02/19 08:48:19;;;;;;;2.63;1.37;;;7.00;99.90;;;7.81;60.01;-19992.63;5112090;28;20227;-57
2022/02/19 08:50:48;;;;;;;4.57;1.47;;;7.00;99.90;;;7.86;60.24;-19994.34;5110303;28;20206;-55
2022/02/19 08:53:16;;;;;;;2.37;1.40;;;6.90;99.90;;;7.86;60.57;-19994.50;5110648;27;20223;-57
2022/02/19 08:55:45;;;;;;;3.87;1.23;;;7.00;99.90;;;7.80;59.81;-19992.28;5110296;28;20227;-55
2022/02/19 08:58:18;;;;;;;5.10;1.30;;;7.00;99.90;;;7.57;60.52;-19984.44;5113029;28;20935;-52
2022/02/19 09:00:47;;;;;;;4.33;1.60;;;6.80;99.90;;;7.78;60.11;-19991.59;5111988;27;20778;-55
2022/02/19 09:03:15;;;;;;;2.47;1.37;;;6.80;99.90;;;7.80;59.55;-19992.47;5110360;27;20244;-56
2022/02/19 09:05:44;;;;;;;4.60;1.20;;;7.00;99.90;;;7.92;59.74;-19996.38;5114015;28;20199;-55
2022/02/19 09:08:12;;;;;;;5.07;1.70;;;7.00;99.90;;;7.95;59.44;-19997.59;5112804;27;20230;-56
2022/02/19 09:10:41;;;;;;;3.10;1.40;;;7.00;99.90;;;7.93;59.00;-19996.72;5112579;27;20243;-57
2022/02/19 09:13:09;;;;;;;3.27;1.27;;;7.10;99.90;;;8.19;59.03;-20005.59;5113156;27;20616;-55
2022/02/19 09:15:39;;;;;;;3.63;1.40;;;7.10;99.90;;;8.32;58.78;-20010.06;5108414;27;20230;-56
2022/02/19 09:18:07;;;;;;;3.60;1.50;;;7.20;99.90;;;8.49;58.10;-20016.03;5107576;27;20227;-55
2022/02/19 09:20:36;;;;;;;3.73;1.47;;;7.40;99.90;;;8.64;57.72;-20021.00;5106447;27;20230;-57
2022/02/19 09:23:04;;;;;;;2.67;1.50;;;7.50;99.90;;;9.13;56.08;-20037.72;5106445;27;20731;-56
2022/02/19 09:25:32;;;;;;;4.37;1.33;;;7.80;99.90;;;9.89;54.32;-20063.69;5105220;27;20314;-54
2022/02/19 09:28:00;;;;;;;5.23;1.43;;;8.20;99.90;;;9.83;52.90;-20061.66;5113771;27;20314;-56
2022/02/19 09:30:29;;;;;;;2.30;1.10;;;8.40;99.90;;;9.21;53.17;-20040.31;5112737;28;20203;-55
2022/02/19 09:33:01;;;;;;;4.17;1.20;;;8.20;99.90;;;8.75;55.27;-20024.75;5114263;28;20222;-56
2022/02/19 09:35:29;;;;;;;2.40;0.90;;;7.90;99.90;;;8.41;54.75;-20013.13;5112370;28;20583;-58
2022/02/19 09:37:57;;;;;;;3.27;1.10;;;7.70;99.90;;;8.47;55.16;-20015.34;5112582;27;20223;-57
2022/02/19 09:40:26;;;;;;;2.10;1.20;;;7.60;99.90;;;8.39;55.74;-20012.44;5109655;27;20258;-56
2022/02/19 09:42:54;;;;;;;4.33;1.37;;;7.60;99.90;;;8.48;55.45;-20015.53;5110756;28;20854;-59
2022/02/19 09:45:28;;;;;;;5.17;1.60;;;7.50;99.90;;;8.82;55.81;-20026.97;5109809;27;20227;-55
2022/02/19 09:47:59;;;;;;;4.43;1.37;;;7.60;99.90;;;9.35;54.58;-20045.25;5112572;28;20221;-55
2022/02/19 09:50:28;;;;;;;6.73;1.80;;;7.90;99.90;;;9.34;52.91;-20044.91;5112580;27;20227;-55
2022/02/19 09:52:56;;;;;;;3.40;1.17;;;8.10;99.90;;;9.04;54.35;-20034.66;5112436;27;20658;-57
2022/02/19 09:55:24;;;;;;;5.13;1.50;;;8.00;99.90;;;8.80;54.05;-20026.47;5105235;28;20247;-56
2022/02/19 09:57:52;;;;;;;2.27;1.03;;;7.90;99.90;;;8.81;53.27;-20026.81;5109623;27;20314;-55
2022/02/19 10:00:37;;;;;;;3.30;1.13;;;7.80;99.90;;;8.97;52.72;-20032.28;5111786;28;20195;-54
2022/02/19 10:03:13;;;;;;;3.50;1.30;;;7.80;99.90;;;8.95;52.96;-20031.59;5112581;28;20644;-56
2022/02/19 10:05:43;;;;;;;4.27;1.50;;;7.80;99.90;;;8.89;51.96;-20029.38;5112146;28;20282;-54
2022/02/19 10:08:11;;;;;;;2.80;1.37;;;7.80;99.90;;;8.87;52.37;-20028.69;5091171;28;20228;-58
2022/02/19 10:10:48;;;;;;;5.33;1.30;;;7.80;99.90;;;8.89;51.90;-20029.53;5091139;28;20773;-58
2022/02/19 10:13:29;;;;;;;5.13;1.30;;;7.80;99.90;;;8.94;51.71;-20031.25;5092236;28;20248;-56
2022/02/19 10:15:58;;;;;;;4.13;1.20;;;7.80;99.90;;;9.12;51.47;-20037.41;5107316;28;20339;-56
2022/02/19 10:18:29;;;;;;;2.00;1.10;;;7.90;99.90;;;8.94;51.27;-20031.25;5118604;27;20249;-56
2022/02/19 10:21:14;;;;;;;2.93;1.23;;;7.90;99.90;;;8.90;52.15;-20029.72;5117280;27;20283;-54
2022/02/19 10:23:45;;;;;;;5.53;1.03;;;7.90;99.90;;;8.82;52.12;-20027.16;5111206;27;20300;-55
2022/02/19 10:26:16;;;;;;;3.73;1.17;;;7.80;99.90;;;8.94;51.84;-20031.25;5111233;28;20503;-55
2022/02/19 10:29:00;;;;;;;3.47;1.30;;;7.90;99.90;;;9.22;51.67;-20040.63;5111184;28;20223;-55
2022/02/19 10:31:29;;;;;;;4.63;1.27;;;8.00;99.90;;;9.31;51.84;-20043.72;5110232;28;20543;-56
2022/02/19 10:34:10;;;;;;;3.33;1.73;;;8.10;99.90;;;9.55;52.21;-20051.91;5110939;28;20306;-56
2022/02/19 10:36:50;;;;;;;3.07;1.07;;;8.20;99.90;;;9.60;50.93;-20053.78;5092826;28;21509;-57
2022/02/19 10:39:27;;;;;;;4.53;1.60;;;8.30;99.90;;;9.71;50.42;-20057.38;5102958;28;20691;-55
2022/02/19 10:41:57;;;;;;;2.67;1.23;;;8.50;99.90;;;9.85;50.36;-20062.34;5111831;28;20518;-53